Time;durP1;ratioP1;P1;durP2;ratioP2;P2;SDS_P1;SDS_P2;PMS_P1;PMS_P2;Temp;Humidity;BMP_temperature;BMP_pressure;BME280_temperature;BME280_humidity;BME280_pressure;Samples;Min_cycle;Max_cycle;Signal;HPM_P1;HPM_P2
2023/10/20 00:01:47;;;;;;;1.05;0.77;;;1.90;99.90;;;;;;5005619;28;20049;-65
2023/10/20 00:04:16;;;;;;;2.35;0.73;;;1.90;99.90;;;;;;4999436;28;20046;-60
2023/10/20 00:06:43;;;;;;;0.77;0.63;;;1.90;99.90;;;;;;5001720;28;20034;-61
2023/10/20 00:09:14;;;;;;;0.77;0.57;;;2.00;99.90;;;;;;5005438;28;20046;-61
2023/10/20 00:11:43;;;;;;;2.80;0.88;;;2.00;99.90;;;;;;5002290;28;20054;-61
2023/10/20 00:14:10;;;;;;;0.50;0.40;;;2.00;99.90;;;;;;5005359;28;20455;-63
2023/10/20 00:16:37;;;;;;;1.35;0.70;;;2.00;99.90;;;;;;5003137;28;20124;-62
2023/10/20 00:19:04;;;;;;;0.90;0.60;;;2.00;99.90;;;;;;5005412;28;20049;-61
2023/10/20 00:21:31;;;;;;;0.90;0.80;;;2.00;99.90;;;;;;5002914;28;20067;-60
2023/10/20 00:23:59;;;;;;;0.95;0.50;;;2.00;99.90;;;;;;5001331;28;20065;-62
2023/10/20 00:26:26;;;;;;;1.95;0.80;;;2.00;99.90;;;;;;5005493;28;20054;-63
2023/10/20 00:28:53;;;;;;;2.22;1.60;;;1.90;99.90;;;;;;5003610;28;20084;-60
2023/10/20 00:31:20;;;;;;;1.17;0.90;;;1.90;99.90;;;;;;5003567;28;20066;-61
2023/10/20 00:33:49;;;;;;;0.80;0.60;;;1.90;99.90;;;;;;5001551;28;20483;-61
2023/10/20 00:36:17;;;;;;;3.22;0.73;;;1.90;99.90;;;;;;5005386;28;20046;-61
2023/10/20 00:38:44;;;;;;;0.60;0.60;;;1.90;99.90;;;;;;4999348;28;20124;-60
2023/10/20 00:41:11;;;;;;;0.60;0.60;;;1.90;99.90;;;;;;5001005;28;20045;-63
2023/10/20 00:43:38;;;;;;;1.60;0.70;;;1.90;99.90;;;;;;4996905;28;20074;-69
2023/10/20 00:46:08;;;;;;;1.20;0.90;;;1.80;99.90;;;;;;5004136;28;20057;-64
2023/10/20 00:48:35;;;;;;;3.97;0.80;;;1.80;99.90;;;;;;5004692;28;20060;-61
2023/10/20 00:51:05;;;;;;;1.20;1.10;;;1.80;99.90;;;;;;5001364;28;20054;-62
2023/10/20 00:53:36;;;;;;;2.08;1.10;;;1.70;99.90;;;;;;4998156;28;20042;-64
2023/10/20 00:56:05;;;;;;;1.40;0.90;;;1.70;99.90;;;;;;5002331;28;20049;-61
2023/10/20 00:58:32;;;;;;;1.60;1.20;;;1.70;99.90;;;;;;4996425;28;20104;-63
2023/10/20 01:00:59;;;;;;;1.63;0.82;;;1.70;99.90;;;;;;4991655;28;20052;-62
2023/10/20 01:03:27;;;;;;;1.38;0.75;;;1.70;99.90;;;;;;5004691;28;20042;-60
2023/10/20 01:05:55;;;;;;;10.38;0.90;;;1.80;99.90;;;;;;4999474;28;20101;-63
2023/10/20 01:08:22;;;;;;;2.83;0.98;;;1.80;99.90;;;;;;4998816;28;20060;-60
2023/10/20 01:10:51;;;;;;;2.97;1.17;;;1.80;99.90;;;;;;5006099;28;20052;-60
2023/10/20 01:13:19;;;;;;;1.23;0.85;;;1.80;99.90;;;;;;5001751;28;20121;-61
2023/10/20 01:15:46;;;;;;;2.38;0.63;;;1.80;99.90;;;;;;5006004;28;20050;-65
2023/10/20 01:18:14;;;;;;;2.80;1.25;;;1.80;99.90;;;;;;4986261;28;20515;-60
2023/10/20 01:20:41;;;;;;;1.40;1.00;;;1.80;99.90;;;;;;5000425;28;20708;-65
2023/10/20 01:23:08;;;;;;;2.80;1.00;;;1.80;99.90;;;;;;5011652;28;20466;-60
2023/10/20 01:25:35;;;;;;;2.20;0.73;;;1.80;99.90;;;;;;5003128;28;20037;-60
2023/10/20 01:28:03;;;;;;;4.03;1.80;;;1.70;99.90;;;;;;5002866;28;20037;-60
2023/10/20 01:30:30;;;;;;;2.72;1.08;;;1.70;99.90;;;;;;5004795;28;20041;-60
2023/10/20 01:32:57;;;;;;;0.82;0.80;;;1.70;99.90;;;;;;4982517;28;20054;-63
2023/10/20 01:35:24;;;;;;;2.08;1.30;;;1.70;99.90;;;;;;4995624;28;20068;-62
2023/10/20 01:37:51;;;;;;;1.67;1.13;;;1.70;99.90;;;;;;4998367;28;20042;-60
2023/10/20 01:40:19;;;;;;;1.60;1.25;;;1.60;99.90;;;;;;4999749;28;20116;-63
2023/10/20 01:42:46;;;;;;;1.30;0.75;;;1.50;99.90;;;;;;4984839;28;20514;-66
2023/10/20 01:45:13;;;;;;;3.47;1.00;;;1.50;99.90;;;;;;5005168;28;20049;-60
2023/10/20 01:47:40;;;;;;;2.83;0.80;;;1.50;99.90;;;;;;4998302;28;20492;-62
2023/10/20 01:50:08;;;;;;;4.10;1.33;;;1.50;99.90;;;;;;5003155;28;20057;-60
2023/10/20 01:52:35;;;;;;;1.35;0.85;;;1.50;99.90;;;;;;4984271;28;20115;-61
2023/10/20 01:55:02;;;;;;;1.58;0.90;;;1.40;99.90;;;;;;5005891;28;20103;-60
2023/10/20 01:57:29;;;;;;;3.65;1.70;;;1.40;99.90;;;;;;5000489;28;20050;-62
2023/10/20 01:59:56;;;;;;;1.35;1.15;;;1.50;99.90;;;;;;4975541;28;20049;-61
2023/10/20 02:02:23;;;;;;;1.13;0.90;;;1.50;99.90;;;;;;4997144;28;20054;-63
2023/10/20 02:04:50;;;;;;;2.83;1.25;;;1.50;99.90;;;;;;4988181;28;20496;-61
2023/10/20 02:07:17;;;;;;;0.95;0.70;;;1.60;99.90;;;;;;4996903;28;20488;-64
2023/10/20 02:09:44;;;;;;;1.67;1.13;;;1.60;99.90;;;;;;5002658;28;20085;-61
2023/10/20 02:12:13;;;;;;;1.42;1.27;;;1.60;99.90;;;;;;4996388;28;20053;-60
2023/10/20 02:14:41;;;;;;;1.23;0.80;;;1.70;99.90;;;;;;4991688;28;20053;-60
2023/10/20 02:17:08;;;;;;;1.00;0.70;;;1.70;99.90;;;;;;4987542;28;20051;-60
2023/10/20 02:19:35;;;;;;;0.98;0.80;;;1.80;99.90;;;;;;4986732;28;20077;-61
2023/10/20 02:22:02;;;;;;;1.73;1.08;;;1.80;99.90;;;;;;4998048;28;20060;-61
2023/10/20 02:24:29;;;;;;;1.58;1.00;;;1.80;99.90;;;;;;5002270;28;20064;-60
2023/10/20 02:26:57;;;;;;;2.15;0.70;;;1.80;99.90;;;;;;5001981;28;20117;-67
2023/10/20 02:29:24;;;;;;;2.00;0.98;;;1.80;99.90;;;;;;5004012;28;20045;-61
2023/10/20 02:31:51;;;;;;;1.30;0.95;;;1.90;99.90;;;;;;4995050;28;20593;-61
2023/10/20 02:34:19;;;;;;;1.77;1.17;;;2.00;99.90;;;;;;4997360;28;20060;-60
2023/10/20 02:36:48;;;;;;;1.98;1.33;;;2.10;99.90;;;;;;5001850;28;20045;-62
2023/10/20 02:39:15;;;;;;;1.13;1.02;;;2.10;99.90;;;;;;5001421;28;20070;-63
2023/10/20 02:41:42;;;;;;;2.38;1.25;;;2.10;99.90;;;;;;5000775;28;20052;-61
2023/10/20 02:44:08;;;;;;;1.17;0.65;;;2.10;99.90;;;;;;5004581;28;20507;-62
2023/10/20 02:46:36;;;;;;;1.42;0.98;;;2.10;99.90;;;;;;4998375;28;20073;-62
2023/10/20 02:49:04;;;;;;;3.53;0.95;;;2.10;99.90;;;;;;4998806;28;20116;-60
2023/10/20 02:51:31;;;;;;;1.38;1.27;;;2.00;99.90;;;;;;4985592;28;20056;-60
2023/10/20 02:53:57;;;;;;;2.30;1.38;;;2.00;99.90;;;;;;5000199;28;20124;-61
2023/10/20 02:56:24;;;;;;;2.95;1.10;;;2.00;99.90;;;;;;4995908;28;20387;-61
2023/10/20 02:58:51;;;;;;;1.30;0.80;;;2.00;99.90;;;;;;4994755;28;20038;-62
2023/10/20 03:01:19;;;;;;;1.75;0.95;;;1.90;99.90;;;;;;4989574;28;20046;-62
2023/10/20 03:03:46;;;;;;;1.27;0.82;;;2.00;99.90;;;;;;5000191;28;20041;-60
2023/10/20 03:06:13;;;;;;;1.15;0.93;;;2.00;99.90;;;;;;5004106;28;20408;-60
2023/10/20 03:08:40;;;;;;;1.50;0.70;;;2.00;99.90;;;;;;5000276;28;20553;-69
2023/10/20 03:11:08;;;;;;;1.45;0.65;;;2.10;99.90;;;;;;4990002;28;20077;-61
2023/10/20 03:13:35;;;;;;;1.10;0.82;;;2.00;99.90;;;;;;4976273;28;20053;-63
2023/10/20 03:16:02;;;;;;;0.88;0.63;;;2.00;99.90;;;;;;4999434;28;20050;-61
2023/10/20 03:18:29;;;;;;;1.52;1.00;;;2.10;99.90;;;;;;4997684;28;20110;-60
2023/10/20 03:21:01;;;;;;;2.15;0.50;;;2.10;99.90;;;;;;4986645;28;20070;-60
2023/10/20 03:23:28;;;;;;;1.50;0.88;;;2.10;99.90;;;;;;4994104;28;20064;-62
2023/10/20 03:25:55;;;;;;;2.80;1.10;;;2.10;99.90;;;;;;4999513;28;20377;-64
2023/10/20 03:28:24;;;;;;;1.30;0.70;;;2.10;99.90;;;;;;5002031;28;20392;-60
2023/10/20 03:30:51;;;;;;;1.85;1.13;;;2.00;99.90;;;;;;5004928;28;20053;-60
2023/10/20 03:33:18;;;;;;;1.38;0.82;;;2.10;99.90;;;;;;5003637;28;20133;-65
2023/10/20 03:35:46;;;;;;;1.83;0.98;;;2.10;99.90;;;;;;4984591;28;20058;-60
2023/10/20 03:38:14;;;;;;;0.75;0.57;;;2.10;99.90;;;;;;4990603;28;20413;-61
2023/10/20 03:40:41;;;;;;;2.20;1.10;;;2.00;99.90;;;;;;5000879;28;20108;-64
2023/10/20 03:43:10;;;;;;;5.78;0.90;;;2.10;99.90;;;;;;5000973;28;20526;-60
2023/10/20 03:45:51;;;;;;;1.40;0.60;;;2.10;99.90;;;;;;5000936;28;20057;-64
2023/10/20 03:48:23;;;;;;;1.63;0.90;;;2.10;99.90;;;;;;5000294;28;20053;-60
2023/10/20 03:50:52;;;;;;;2.03;1.05;;;2.10;99.90;;;;;;4996991;28;20050;-64
2023/10/20 03:53:22;;;;;;;2.63;0.70;;;2.20;99.90;;;;;;4984044;28;20054;-63
2023/10/20 03:56:00;;;;;;;;;;;2.30;99.90;;;;;;5000156;28;20073;-60
2023/10/20 03:58:29;;;;;;;2.17;1.00;;;2.30;99.90;;;;;;4998219;28;19941;-60
2023/10/20 04:00:57;;;;;;;1.80;1.15;;;2.30;99.90;;;;;;5006877;28;20045;-60
2023/10/20 04:03:25;;;;;;;0.90;0.73;;;2.40;99.90;;;;;;5007127;28;20046;-61
2023/10/20 04:05:52;;;;;;;2.47;0.90;;;2.40;99.90;;;;;;5003094;28;20052;-61
2023/10/20 04:08:20;;;;;;;1.88;0.80;;;2.50;99.90;;;;;;5005225;28;20389;-60
2023/10/20 04:10:47;;;;;;;6.57;0.90;;;2.50;99.90;;;;;;5008496;28;20493;-62
2023/10/20 04:13:14;;;;;;;0.95;0.80;;;2.50;99.90;;;;;;5000273;28;20038;-63
2023/10/20 04:15:42;;;;;;;1.10;0.70;;;2.50;99.90;;;;;;5008384;28;20785;-63
2023/10/20 04:18:09;;;;;;;0.77;0.60;;;2.40;99.90;;;;;;4999373;28;20137;-60
2023/10/20 04:20:40;;;;;;;1.17;0.68;;;2.40;99.90;;;;;;5000683;28;20069;-66
2023/10/20 04:23:07;;;;;;;1.52;0.85;;;2.50;99.90;;;;;;5003978;28;20074;-62
2023/10/20 04:25:49;;;;;;;1.80;1.40;;;2.40;99.90;;;;;;5004238;28;20116;-61
2023/10/20 04:28:18;;;;;;;1.35;1.05;;;2.50;99.90;;;;;;5006259;28;20050;-61
2023/10/20 04:58:01;;;;;;;1.98;1.17;;;2.50;99.90;;;;;;5003829;28;20104;-61
2023/10/20 05:00:34;;;;;;;1.92;1.63;;;2.60;99.90;;;;;;5004531;28;20041;-63
2023/10/20 05:08:08;;;;;;;2.47;1.40;;;2.50;99.90;;;;;;5002921;28;20520;-65
2023/10/20 05:10:35;;;;;;;2.47;1.42;;;2.50;99.90;;;;;;5001476;28;20057;-60
2023/10/20 05:13:02;;;;;;;2.83;1.17;;;2.50;99.90;;;;;;4997687;28;20133;-60
2023/10/20 05:15:32;;;;;;;2.83;1.27;;;2.50;99.90;;;;;;5001089;28;20133;-65
2023/10/20 05:17:59;;;;;;;1.17;0.85;;;2.60;99.90;;;;;;5000322;28;20673;-62
2023/10/20 05:20:26;;;;;;;2.00;1.13;;;2.60;99.90;;;;;;5003094;28;20477;-63
2023/10/20 05:22:56;;;;;;;1.35;0.90;;;2.60;99.90;;;;;;5001900;28;20045;-61
2023/10/20 05:25:23;;;;;;;2.30;0.80;;;2.60;99.90;;;;;;5002560;28;20042;-69
2023/10/20 05:27:50;;;;;;;2.10;1.13;;;2.60;99.90;;;;;;5002406;28;20132;-61
2023/10/20 05:30:16;;;;;;;1.92;0.98;;;2.60;99.90;;;;;;5000875;28;20065;-61
2023/10/20 05:32:46;;;;;;;2.17;1.00;;;2.50;99.90;;;;;;4999211;28;20096;-60
2023/10/20 05:35:13;;;;;;;2.40;1.20;;;2.50;99.90;;;;;;5000710;28;20547;-60
2023/10/20 05:37:40;;;;;;;1.77;1.65;;;2.50;99.90;;;;;;4999173;28;20039;-61
2023/10/20 05:40:07;;;;;;;2.78;1.45;;;2.50;99.90;;;;;;4981750;28;20125;-67
2023/10/20 05:42:34;;;;;;;1.83;0.95;;;2.50;99.90;;;;;;4987089;28;20132;-61
2023/10/20 05:45:10;;;;;;;1.25;1.08;;;2.50;99.90;;;;;;5000270;28;20049;-61
2023/10/20 05:47:38;;;;;;;3.60;1.65;;;2.60;99.90;;;;;;4998165;28;20049;-65
2023/10/20 05:50:06;;;;;;;5.22;1.05;;;2.60;99.90;;;;;;5004856;28;20050;-61
2023/10/20 05:52:35;;;;;;;2.38;1.17;;;2.60;99.90;;;;;;5000266;28;20045;-62
2023/10/20 05:55:03;;;;;;;1.38;1.25;;;2.50;99.90;;;;;;4999491;28;20061;-67
2023/10/20 05:57:30;;;;;;;2.97;1.77;;;2.50;99.90;;;;;;4997757;28;20050;-64
2023/10/20 06:00:00;;;;;;;2.05;0.90;;;2.50;99.90;;;;;;5001371;28;20643;-63
2023/10/20 06:02:32;;;;;;;1.95;1.40;;;2.50;99.90;;;;;;4999467;28;20483;-61
2023/10/20 06:04:59;;;;;;;1.85;1.25;;;2.50;99.90;;;;;;5001136;28;20571;-62
2023/10/20 06:07:27;;;;;;;2.58;0.88;;;2.50;99.90;;;;;;5000118;28;20048;-60
2023/10/20 06:09:54;;;;;;;2.25;1.05;;;2.50;99.90;;;;;;4999944;28;20484;-61
2023/10/20 06:12:21;;;;;;;1.30;1.17;;;2.50;99.90;;;;;;4996977;28;20111;-65
2023/10/20 06:14:48;;;;;;;1.33;0.88;;;2.50;99.90;;;;;;4999099;28;20817;-63
2023/10/20 06:17:17;;;;;;;2.53;1.38;;;2.50;99.90;;;;;;5001276;28;20054;-60
2023/10/20 06:19:48;;;;;;;2.97;1.23;;;2.50;99.90;;;;;;4994955;28;20046;-61
2023/10/20 06:22:15;;;;;;;1.77;1.10;;;2.50;99.90;;;;;;5000080;28;20624;-61
2023/10/20 06:24:43;;;;;;;2.28;1.30;;;2.60;99.90;;;;;;4999605;28;20080;-67
2023/10/20 06:27:11;;;;;;;4.88;1.02;;;2.60;99.90;;;;;;4999402;28;20058;-63
2023/10/20 06:29:54;;;;;;;2.35;1.08;;;2.60;99.90;;;;;;5003851;28;20420;-70
2023/10/20 06:32:32;;;;;;;1.02;0.80;;;2.70;99.90;;;;;;5000082;28;20080;-62
2023/10/20 06:35:02;;;;;;;1.60;0.98;;;2.80;99.90;;;;;;4997957;28;20045;-60
2023/10/20 06:37:35;;;;;;;1.30;0.93;;;2.90;99.90;;;;;;4998854;28;20129;-62
2023/10/20 06:40:06;;;;;;;2.53;0.70;;;2.90;99.90;;;;;;5003284;28;20062;-66
2023/10/20 06:42:32;;;;;;;;;;;2.90;99.90;;;;;;4994267;28;20798;-63
2023/10/20 06:45:02;;;;;;;2.42;0.77;;;3.00;99.90;;;;;;5001264;28;19984;-61
2023/10/20 06:47:29;;;;;;;2.47;0.77;;;3.00;99.90;;;;;;4992599;28;20058;-60
2023/10/20 06:49:56;;;;;;;2.20;0.70;;;3.10;99.90;;;;;;4999247;28;20042;-61
2023/10/20 06:52:23;;;;;;;1.85;0.85;;;3.10;99.90;;;;;;4999953;28;20042;-65
2023/10/20 06:54:50;;;;;;;2.72;0.80;;;3.20;99.90;;;;;;5004562;28;20167;-62
2023/10/20 06:57:37;;;;;;;1.52;1.02;;;3.30;99.90;;;;;;5006297;28;20833;-62
2023/10/20 07:00:16;;;;;;;1.30;1.20;;;3.30;99.90;;;;;;5002515;28;20046;-62
2023/10/20 07:02:43;;;;;;;2.17;0.63;;;3.30;99.90;;;;;;4999282;28;20480;-67
2023/10/20 07:05:11;;;;;;;1.23;0.50;;;3.40;99.90;;;;;;5004346;28;20042;-61
2023/10/20 07:07:38;;;;;;;3.78;0.57;;;3.40;99.90;;;;;;5005071;28;20431;-65
2023/10/20 07:10:05;;;;;;;2.22;0.50;;;3.40;99.90;;;;;;5003816;28;20042;-61
2023/10/20 07:12:32;;;;;;;1.40;1.00;;;3.40;99.90;;;;;;4999562;28;20041;-60
2023/10/20 07:14:59;;;;;;;0.55;0.40;;;3.30;99.90;;;;;;5002336;28;20081;-60
2023/10/20 07:17:27;;;;;;;0.82;0.82;;;3.40;99.90;;;;;;4999585;28;20050;-61
2023/10/20 07:19:54;;;;;;;0.93;0.60;;;3.40;99.90;;;;;;4999305;28;20496;-65
2023/10/20 07:22:21;;;;;;;0.70;0.40;;;3.40;99.90;;;;;;5003729;28;21691;-61
2023/10/20 07:24:52;;;;;;;2.50;0.60;;;3.40;99.90;;;;;;5002931;28;20042;-60
2023/10/20 07:27:22;;;;;;;5.97;1.08;;;3.50;99.90;;;;;;5001885;28;20448;-65
2023/10/20 07:29:49;;;;;;;3.15;0.60;;;3.50;99.90;;;;;;5004803;28;20042;-61
2023/10/20 07:32:16;;;;;;;1.70;0.60;;;3.50;99.90;;;;;;5005898;28;20038;-62
2023/10/20 07:34:43;;;;;;;1.52;0.68;;;3.40;99.90;;;;;;5003023;28;20504;-61
2023/10/20 07:37:11;;;;;;;1.50;0.68;;;3.50;99.90;;;;;;5001174;28;20600;-62
2023/10/20 07:39:38;;;;;;;2.30;1.00;;;3.40;99.90;;;;;;4999804;28;20118;-65
2023/10/20 07:42:05;;;;;;;1.67;0.70;;;3.40;99.90;;;;;;5003895;28;20053;-67
2023/10/20 07:44:32;;;;;;;2.17;0.82;;;3.40;99.90;;;;;;5001589;28;21380;-62
2023/10/20 07:47:00;;;;;;;2.58;0.85;;;3.40;99.90;;;;;;5003290;28;20042;-62
2023/10/20 07:49:27;;;;;;;2.15;0.75;;;3.40;99.90;;;;;;5003433;28;20046;-61
2023/10/20 07:51:54;;;;;;;1.75;0.70;;;3.30;99.90;;;;;;5003113;28;20042;-72
2023/10/20 07:54:21;;;;;;;1.45;0.93;;;3.20;99.90;;;;;;4997973;28;20062;-64
2023/10/20 07:56:48;;;;;;;2.22;0.45;;;3.20;99.90;;;;;;5001355;28;20100;-62
2023/10/20 07:59:17;;;;;;;2.15;0.60;;;3.10;99.90;;;;;;4999165;28;20120;-64
2023/10/20 08:01:44;;;;;;;2.00;0.40;;;3.00;99.90;;;;;;5003354;28;20069;-65
2023/10/20 08:04:11;;;;;;;1.83;0.60;;;3.10;99.90;;;;;;5000670;28;20074;-61
2023/10/20 08:06:38;;;;;;;3.05;0.60;;;3.10;99.90;;;;;;5005940;28;20106;-62
2023/10/20 08:09:08;;;;;;;2.85;0.82;;;3.10;99.90;;;;;;5004996;28;20535;-64
2023/10/20 08:11:35;;;;;;;2.15;0.60;;;3.20;99.90;;;;;;4998803;28;20541;-62
2023/10/20 08:14:02;;;;;;;2.65;0.65;;;3.20;99.90;;;;;;5001915;28;20643;-67
2023/10/20 08:16:29;;;;;;;2.10;0.80;;;3.20;99.90;;;;;;4997339;28;20054;-61
2023/10/20 08:18:56;;;;;;;6.30;1.38;;;3.20;99.90;;;;;;5000824;28;20061;-61
2023/10/20 08:21:29;;;;;;;5.65;2.38;;;3.40;99.90;;;;;;4999620;28;20510;-62
2023/10/20 08:24:00;;;;;;;5.32;1.27;;;3.50;99.90;;;;;;4999027;28;20519;-62
2023/10/20 08:26:27;;;;;;;2.42;1.27;;;3.70;99.90;;;;;;5003792;28;20041;-62
2023/10/20 08:28:53;;;;;;;2.80;1.45;;;4.00;99.90;;;;;;5003844;28;20053;-61
2023/10/20 08:31:21;;;;;;;1.58;1.20;;;4.20;99.90;;;;;;5003344;28;20539;-63
2023/10/20 08:33:51;;;;;;;2.05;1.15;;;4.20;99.90;;;;;;5000171;28;20046;-60
2023/10/20 08:36:22;;;;;;;1.88;0.98;;;4.30;99.90;;;;;;5003576;28;20066;-63
2023/10/20 08:38:51;;;;;;;1.30;0.70;;;4.30;99.90;;;;;;5002478;28;20041;-61
2023/10/20 08:41:21;;;;;;;3.35;1.23;;;4.30;99.90;;;;;;5001366;28;20073;-63
2023/10/20 08:43:49;;;;;;;7.45;1.98;;;4.30;99.90;;;;;;4995230;28;20046;-63
2023/10/20 08:46:17;;;;;;;1.30;1.10;;;4.20;99.90;;;;;;4994501;28;20073;-61
2023/10/20 08:48:46;;;;;;;1.77;1.30;;;4.10;99.90;;;;;;4993232;28;20043;-63
2023/10/20 08:51:15;;;;;;;2.47;1.80;;;4.10;99.90;;;;;;4990002;28;20596;-63
2023/10/20 08:53:44;;;;;;;2.67;1.00;;;4.00;99.90;;;;;;4996164;28;20041;-61
2023/10/20 08:56:12;;;;;;;1.75;0.98;;;4.00;99.90;;;;;;4993190;28;20066;-71
2023/10/20 08:58:39;;;;;;;1.55;1.00;;;4.00;99.90;;;;;;4992332;28;20120;-69
2023/10/20 09:01:06;;;;;;;0.90;0.50;;;4.00;99.90;;;;;;5000031;28;20070;-68
2023/10/20 09:03:42;;;;;;;2.88;0.80;;;4.10;99.90;;;;;;4996590;28;20069;-62
2023/10/20 09:06:12;;;;;;;1.50;0.85;;;4.10;99.90;;;;;;4993967;28;20050;-60
2023/10/20 09:08:39;;;;;;;1.67;1.20;;;4.00;99.90;;;;;;4995042;28;20046;-71
2023/10/20 09:11:11;;;;;;;3.10;1.17;;;4.10;99.90;;;;;;4988990;28;20078;-63
2023/10/20 09:13:40;;;;;;;1.30;1.00;;;4.20;99.90;;;;;;4989451;28;20050;-72
2023/10/20 09:16:10;;;;;;;1.95;1.02;;;4.30;99.90;;;;;;4989928;28;20064;-63
2023/10/20 09:18:48;;;;;;;4.47;1.27;;;4.30;99.90;;;;;;4993673;28;20502;-64
2023/10/20 09:21:17;;;;;;;2.92;1.15;;;4.30;99.90;;;;;;4991970;28;20104;-63
2023/10/20 09:24:02;;;;;;;2.17;0.85;;;4.40;99.90;;;;;;4993591;28;20058;-61
2023/10/20 09:26:32;;;;;;;0.98;0.73;;;4.40;99.90;;;;;;4989370;28;20616;-61
2023/10/20 09:28:59;;;;;;;2.20;0.80;;;4.50;99.90;;;;;;4988036;28;20125;-61
2023/10/20 09:31:27;;;;;;;2.28;1.00;;;4.50;99.90;;;;;;4988397;28;20518;-63
2023/10/20 09:33:54;;;;;;;1.02;0.80;;;4.40;99.90;;;;;;4991081;28;20556;-63
2023/10/20 09:36:23;;;;;;;2.20;0.80;;;4.30;99.90;;;;;;4992027;28;20054;-63
2023/10/20 09:38:55;;;;;;;3.67;1.10;;;4.30;99.90;;;;;;4990384;28;20496;-71
2023/10/20 09:41:29;;;;;;;3.55;1.10;;;4.20;99.90;;;;;;4987131;28;20124;-64
2023/10/20 09:44:06;;;;;;;1.13;0.73;;;4.20;99.90;;;;;;4996423;28;20046;-62
2023/10/20 09:46:53;;;;;;;3.00;1.90;;;4.20;99.90;;;;;;4990913;28;20038;-63
2023/10/20 09:49:22;;;;;;;1.98;0.75;;;4.20;99.90;;;;;;4993326;28;20041;-61
2023/10/20 09:51:50;;;;;;;1.30;0.73;;;4.30;99.90;;;;;;4989857;28;20551;-62
2023/10/20 09:54:24;;;;;;;4.32;0.93;;;4.30;99.90;;;;;;4987188;28;20053;-63
2023/10/20 09:56:52;;;;;;;0.80;0.65;;;4.40;99.90;;;;;;4989114;28;20058;-69
2023/10/20 09:59:24;;;;;;;1.05;0.60;;;4.30;99.90;;;;;;4992308;28;20049;-62
2023/10/20 10:01:56;;;;;;;1.88;1.13;;;4.20;99.90;;;;;;4990938;28;20085;-62
2023/10/20 10:04:29;;;;;;;1.15;0.70;;;4.00;99.90;;;;;;4996602;28;20648;-61
2023/10/20 10:07:03;;;;;;;2.85;0.93;;;3.90;99.90;;;;;;4992500;28;20038;-61
2023/10/20 10:09:49;;;;;;;4.22;1.33;;;4.00;99.90;;;;;;4995476;28;20126;-65
2023/10/20 10:12:20;;;;;;;1.70;0.80;;;4.20;99.90;;;;;;4995791;28;20573;-65
2023/10/20 10:14:57;;;;;;;2.15;1.00;;;4.40;99.90;;;;;;4992297;28;20046;-64
2023/10/20 10:17:27;;;;;;;3.67;1.30;;;4.50;99.90;;;;;;4990628;28;20086;-62
2023/10/20 10:19:56;;;;;;;4.55;2.33;;;4.70;99.90;;;;;;4987496;28;20070;-63
2023/10/20 10:22:26;;;;;;;2.33;2.08;;;4.60;99.90;;;;;;4995726;28;20074;-65
2023/10/20 10:24:54;;;;;;;;;;;4.70;99.90;;;;;;4995788;28;20044;-61
2023/10/20 10:27:26;;;;;;;1.70;0.93;;;4.70;99.90;;;;;;4997282;28;19939;-64
2023/10/20 10:29:53;;;;;;;3.63;1.63;;;4.60;99.90;;;;;;4999857;28;20039;-64
2023/10/20 10:32:22;;;;;;;1.75;0.50;;;4.50;99.90;;;;;;4998106;28;20157;-63
2023/10/20 10:34:53;;;;;;;1.90;1.38;;;4.60;99.90;;;;;;4987778;28;20428;-61
2023/10/20 10:37:34;;;;;;;3.25;1.42;;;4.80;99.90;;;;;;4995890;28;20054;-64
2023/10/20 10:40:13;;;;;;;1.08;0.50;;;5.00;99.90;;;;;;4999480;28;20038;-64
2023/10/20 10:42:45;;;;;;;4.05;1.58;;;5.10;99.90;;;;;;4998974;28;20344;-62
2023/10/20 10:45:35;;;;;;;0.95;0.55;;;5.20;99.90;;;;;;5002528;28;20076;-63
2023/10/20 10:48:12;;;;;;;2.13;0.47;;;5.30;99.90;;;;;;4989339;28;20071;-65
2023/10/20 10:50:41;;;;;;;1.77;0.55;;;5.40;99.90;;;;;;5000011;28;20053;-65
2023/10/20 10:53:10;;;;;;;1.77;0.93;;;5.30;99.90;;;;;;4997928;28;20046;-60
2023/10/20 10:55:37;;;;;;;1.80;0.80;;;5.30;99.90;;;;;;4986485;28;20093;-63
2023/10/20 10:58:14;;;;;;;3.50;1.05;;;5.20;99.90;;;;;;4992851;28;20063;-64
2023/10/20 11:00:43;;;;;;;1.50;0.80;;;5.30;99.90;;;;;;4999564;28;20054;-64
2023/10/20 11:03:11;;;;;;;2.67;1.20;;;5.20;99.90;;;;;;4991578;28;20665;-62
2023/10/20 11:05:39;;;;;;;2.15;1.00;;;5.10;99.90;;;;;;4996892;28;20109;-68
2023/10/20 11:08:08;;;;;;;4.30;1.13;;;5.10;99.90;;;;;;4996627;28;20104;-65
2023/10/20 11:10:37;;;;;;;0.93;0.70;;;5.20;99.90;;;;;;5001671;28;20117;-62
2023/10/20 11:13:10;;;;;;;0.90;0.65;;;5.20;99.90;;;;;;4998688;28;20050;-61
2023/10/20 11:15:37;;;;;;;1.30;1.02;;;5.20;99.90;;;;;;4995968;28;20135;-67
2023/10/20 11:18:06;;;;;;;2.00;0.88;;;5.00;99.90;;;;;;4993944;28;20147;-62
2023/10/20 11:20:38;;;;;;;1.38;0.65;;;5.00;99.90;;;;;;5002550;28;20046;-62
2023/10/20 11:23:07;;;;;;;0.98;0.80;;;4.90;99.90;;;;;;5000599;28;20066;-62
2023/10/20 11:25:35;;;;;;;3.42;2.15;;;4.90;99.90;;;;;;4996729;28;20057;-62
2023/10/20 11:28:03;;;;;;;2.15;0.98;;;4.80;99.90;;;;;;5001922;28;20050;-64
2023/10/20 11:30:38;;;;;;;1.33;0.80;;;4.80;99.90;;;;;;4997688;28;20456;-67
2023/10/20 11:33:06;;;;;;;0.63;0.40;;;4.80;99.90;;;;;;5007417;28;20045;-61
2023/10/20 11:35:33;;;;;;;2.38;0.82;;;4.90;99.90;;;;;;5000495;28;20100;-63
2023/10/20 11:38:00;;;;;;;0.73;0.57;;;4.80;99.90;;;;;;4994360;28;20035;-62
2023/10/20 11:40:28;;;;;;;1.08;0.57;;;4.70;99.90;;;;;;4999614;28;20038;-61
2023/10/20 11:42:56;;;;;;;1.23;0.45;;;4.70;99.90;;;;;;5000246;28;20042;-62
2023/10/20 11:45:23;;;;;;;3.90;0.70;;;4.60;99.90;;;;;;4995337;28;20041;-63
2023/10/20 11:47:51;;;;;;;1.52;0.70;;;4.60;99.90;;;;;;5001282;28;20037;-62
2023/10/20 11:50:19;;;;;;;1.80;1.15;;;4.60;99.90;;;;;;5007709;28;20077;-63
2023/10/20 11:52:47;;;;;;;1.67;1.05;;;4.60;99.90;;;;;;5002696;28;20042;-66
2023/10/20 11:55:14;;;;;;;2.08;1.02;;;4.50;99.90;;;;;;5000594;28;20054;-61
2023/10/20 11:57:41;;;;;;;2.13;0.82;;;4.40;99.90;;;;;;5008744;28;20155;-64
2023/10/20 12:00:09;;;;;;;2.03;0.65;;;4.40;99.90;;;;;;5001151;28;20450;-62
2023/10/20 12:02:40;;;;;;;2.50;0.80;;;4.30;99.90;;;;;;5003973;28;20045;-65
2023/10/20 12:05:09;;;;;;;2.85;1.20;;;4.30;99.90;;;;;;5001628;28;20058;-60
2023/10/20 12:07:36;;;;;;;3.42;2.03;;;4.30;99.90;;;;;;4998022;28;20124;-64
2023/10/20 12:10:07;;;;;;;4.13;1.88;;;4.20;99.90;;;;;;4994787;28;20145;-61
2023/10/20 12:12:34;;;;;;;2.10;0.60;;;4.20;99.90;;;;;;5001635;28;20096;-61
2023/10/20 12:15:02;;;;;;;2.53;0.82;;;4.10;99.90;;;;;;5001190;28;20046;-61
2023/10/20 12:17:29;;;;;;;1.25;0.70;;;4.10;99.90;;;;;;5000071;28;20129;-62
2023/10/20 12:19:56;;;;;;;1.40;0.70;;;4.10;99.90;;;;;;4996678;28;20042;-63
2023/10/20 12:22:25;;;;;;;3.45;1.25;;;4.10;99.90;;;;;;4993658;28;20065;-63
2023/10/20 12:24:53;;;;;;;3.17;0.50;;;4.10;99.90;;;;;;4999772;28;21772;-64
2023/10/20 12:27:21;;;;;;;1.88;0.60;;;4.10;99.90;;;;;;4998278;28;20049;-63
2023/10/20 12:29:48;;;;;;;0.80;0.73;;;4.10;99.90;;;;;;5000842;28;20530;-62
2023/10/20 12:32:15;;;;;;;0.90;0.57;;;4.20;99.90;;;;;;4998796;28;20056;-60
2023/10/20 12:34:43;;;;;;;0.95;0.50;;;4.30;99.90;;;;;;5000406;28;20122;-65
2023/10/20 12:37:10;;;;;;;1.55;0.45;;;4.30;99.90;;;;;;5000914;28;20046;-62
2023/10/20 12:39:39;;;;;;;0.88;0.80;;;4.30;99.90;;;;;;4985685;28;20061;-63
2023/10/20 12:42:07;;;;;;;2.70;0.77;;;4.30;99.90;;;;;;5001645;28;20480;-64
2023/10/20 12:44:34;;;;;;;2.10;1.05;;;4.50;99.90;;;;;;5001236;28;20391;-64
2023/10/20 12:47:03;;;;;;;2.88;0.90;;;4.70;99.90;;;;;;5001139;28;20624;-66
2023/10/20 12:49:31;;;;;;;2.88;0.60;;;4.90;99.90;;;;;;5003364;28;20042;-62
2023/10/20 12:51:58;;;;;;;3.25;1.35;;;4.90;99.90;;;;;;5001199;28;20046;-62
2023/10/20 12:54:28;;;;;;;4.80;1.13;;;4.90;99.90;;;;;;5002047;28;20140;-63
2023/10/20 12:56:55;;;;;;;3.55;1.15;;;4.90;99.90;;;;;;5005212;28;20100;-65
2023/10/20 12:59:22;;;;;;;0.93;0.40;;;5.00;99.90;;;;;;5000109;28;20049;-64
2023/10/20 13:01:50;;;;;;;1.75;0.80;;;4.90;99.90;;;;;;4984313;28;20093;-62
2023/10/20 13:04:17;;;;;;;4.80;1.00;;;5.00;99.90;;;;;;4995331;28;20046;-62
2023/10/20 13:06:44;;;;;;;3.45;0.90;;;4.90;99.90;;;;;;5003752;28;20152;-63
2023/10/20 13:09:25;;;;;;;1.00;0.40;;;4.80;99.90;;;;;;5001729;28;20034;-68
2023/10/20 13:11:52;;;;;;;4.68;0.93;;;4.70;99.90;;;;;;5002238;28;20046;-64
2023/10/20 13:14:19;;;;;;;0.93;0.38;;;4.70;99.90;;;;;;5003012;28;20034;-64
2023/10/20 13:16:46;;;;;;;2.05;0.60;;;4.60;99.90;;;;;;4994136;28;20444;-64
2023/10/20 13:19:13;;;;;;;1.05;0.80;;;4.50;99.90;;;;;;5000610;28;20049;-63
2023/10/20 13:21:41;;;;;;;1.55;0.60;;;4.50;99.90;;;;;;5005088;28;20377;-65
2023/10/20 13:24:09;;;;;;;2.40;0.43;;;4.50;99.90;;;;;;5001023;28;20050;-68
2023/10/20 13:26:36;;;;;;;0.98;0.50;;;4.50;99.90;;;;;;4999427;28;20068;-62
2023/10/20 13:29:03;;;;;;;1.38;0.73;;;4.60;99.90;;;;;;4999796;28;20042;-64
2023/10/20 13:31:31;;;;;;;0.82;0.57;;;4.70;99.90;;;;;;4995882;28;20423;-63
2023/10/20 13:33:59;;;;;;;2.20;0.85;;;4.70;99.90;;;;;;4999034;28;20206;-61
2023/10/20 13:36:26;;;;;;;1.83;0.55;;;4.60;99.90;;;;;;5004188;28;20045;-61
2023/10/20 13:38:53;;;;;;;0.65;0.50;;;4.60;99.90;;;;;;5002619;28;20049;-62